Accueil
METAR-TAF:

METAR-TAF

Aéroports :

Aéroport international Fuaʻamotu

Tongatapu, Tonga

latitude: 21-14S, longitude: 175-09W, altitude: 38 m

Observation

Le bulletin a été fait il y a 58 minutes, à 10:00 UTC
Vent 4 kt de est/sud-est
Température 20°C
Humidité 73%
Pression 1017 hPa
Visibilité 10 km ou plus
Quelques nuages à une hauteur de 1800 ft

METAR: NFTF 221000Z 11004KT 9999 FEW018 20/15 Q1017

Heure: 23:58 (10:58 UTC)

Prévision

Le bulletin a été fait il y a 5 heures et 41 minutes, à 05:17 UTC
Prévision valable du 22 à 06 UTC au 23 à 06 UTC
Vent 5 kt de est
Visibilité 10 km ou plus
Nuages épars à une hauteur de 1800 ft
Probabilité 30%
du 22 à 15 UTC au 22 à 19 UTC
Vent 3 kt de direction variable
Visibilité: 0900 m
Quelques nuages à une hauteur de 2000 ft
brouillard

TAF: NFTF 220517Z 2206/2306 10005KT 9999 SCT018 PROB30 2215/2219 VRB03KT 0900 FG FEW020

Observations et prévisions météorologiques de plus de 4000 aéroports (messages METAR et TAF).

Les stations disponibles sont représentées par des disques jaunes et rouges sur la carte.

Passer la souris dessus pour voir le nom de la station.

Cliquer dessus pour voir les observations et prévisions météorologiques.

Pour changer de carte: cliquez sur les boutons verts avec une croix noire pour zoomer, sur le bouton vert avec un tiret pour effectuer un zoom arrière, ou sur les flèches vertes pour les cartes adjacentes.


METAR-TAF: